createdAt,value
2022-12-14T00:01:25.445Z,85.65
2022-12-14T00:03:52.616Z,85.05
2022-12-14T00:06:29.628Z,85.53
2022-12-14T00:08:58.071Z,85.69
2022-12-14T00:11:25.286Z,85.77
2022-12-14T00:13:57.818Z,85.16
2022-12-14T00:16:26.174Z,84.90
2022-12-14T00:18:55.547Z,84.87
2022-12-14T00:21:22.757Z,85.05
2022-12-14T00:23:50.741Z,85.41
2022-12-14T00:26:19.180Z,85.41
2022-12-14T00:28:46.678Z,84.94
2022-12-14T00:31:13.466Z,84.91
2022-12-14T00:33:40.597Z,84.84
2022-12-14T00:36:09.146Z,85.12
2022-12-14T00:38:36.709Z,85.05
2022-12-14T00:41:03.293Z,84.82
2022-12-14T00:43:30.216Z,85.46
2022-12-14T00:45:56.821Z,84.74
2022-12-14T00:48:25.200Z,85.24
2022-12-14T00:50:53.972Z,85.33
2022-12-14T00:53:20.759Z,84.95
2022-12-14T00:55:49.530Z,85.04
2022-12-14T00:58:18.713Z,84.97
2022-12-14T01:00:45.815Z,84.63
2022-12-14T01:03:13.059Z,84.51
2022-12-14T01:05:40.248Z,85.03
2022-12-14T01:08:07.620Z,84.52
2022-12-14T01:10:34.171Z,84.63
2022-12-14T01:13:00.612Z,85.17
2022-12-14T01:15:27.013Z,84.58
2022-12-14T01:17:53.410Z,84.41
2022-12-14T01:20:19.813Z,84.38
2022-12-14T01:22:46.326Z,84.40
2022-12-14T01:25:12.770Z,84.34
2022-12-14T01:27:39.161Z,84.72
2022-12-14T01:30:05.995Z,84.28
2022-12-14T01:32:34.514Z,84.35
2022-12-14T01:35:00.871Z,84.38
2022-12-14T01:37:28.822Z,84.13
2022-12-14T01:39:55.532Z,84.40
2022-12-14T01:42:22.523Z,84.54
2022-12-14T01:44:53.801Z,84.68
2022-12-14T01:47:29.092Z,84.69
2022-12-14T01:50:10.082Z,84.36
2022-12-14T01:52:42.802Z,84.23
2022-12-14T01:55:21.721Z,84.44
2022-12-14T01:58:18.196Z,84.17
2022-12-14T02:00:45.150Z,84.38
2022-12-14T02:03:15.455Z,84.75
2022-12-14T02:05:46.814Z,84.66
2022-12-14T02:08:14.643Z,84.72
2022-12-14T02:10:41.708Z,84.79
2022-12-14T02:13:29.683Z,84.63
2022-12-14T02:15:56.496Z,84.74
2022-12-14T02:18:28.731Z,84.40
2022-12-14T02:21:12.624Z,84.81
2022-12-14T02:23:38.987Z,85.00
2022-12-14T02:26:14.486Z,84.88
2022-12-14T02:28:59.153Z,84.68
2022-12-14T02:31:44.585Z,84.82
2022-12-14T02:34:26.138Z,84.79
2022-12-14T02:37:15.191Z,84.95
2022-12-14T02:40:11.487Z,84.69
2022-12-14T02:42:44.052Z,85.01
2022-12-14T02:45:32.012Z,84.80
2022-12-14T02:48:06.977Z,84.69
2022-12-14T02:51:01.341Z,84.42
2022-12-14T02:53:50.121Z,84.92
2022-12-14T02:56:22.219Z,84.79
2022-12-14T02:58:50.713Z,84.81
2022-12-14T03:01:23.874Z,84.96
2022-12-14T03:03:51.230Z,85.04
2022-12-14T03:06:26.180Z,84.88
2022-12-14T03:09:13.845Z,84.95
2022-12-14T03:11:51.378Z,85.04
2022-12-14T03:14:32.897Z,85.11
2022-12-14T03:17:07.624Z,85.12
2022-12-14T03:19:45.959Z,85.13
2022-12-14T03:22:24.103Z,85.19
2022-12-14T03:24:55.470Z,85.04
2022-12-14T03:27:30.073Z,85.15
2022-12-14T03:30:37.185Z,85.11
2022-12-14T03:33:11.636Z,85.12
2022-12-14T03:35:43.404Z,85.39
2022-12-14T03:38:33.891Z,85.65
2022-12-14T03:41:12.865Z,85.55
2022-12-14T03:43:54.324Z,85.68
2022-12-14T03:46:32.170Z,85.58
2022-12-14T03:49:24.146Z,85.79
2022-12-14T03:52:07.646Z,85.76
2022-12-14T03:54:49.578Z,85.59
2022-12-14T03:57:48.400Z,85.85
2022-12-14T04:00:20.349Z,85.74
2022-12-14T04:02:52.195Z,85.89
2022-12-14T04:05:25.186Z,85.97
2022-12-14T04:08:35.352Z,85.93
2022-12-14T04:11:23.711Z,85.94
2022-12-14T04:14:16.696Z,86.04
2022-12-14T04:17:05.138Z,86.13
2022-12-14T04:19:42.165Z,85.75
2022-12-14T04:22:14.449Z,86.04
2022-12-14T04:25:14.055Z,85.78
2022-12-14T04:27:55.947Z,86.18
2022-12-14T04:30:22.868Z,86.25
2022-12-14T04:32:56.252Z,86.14
2022-12-14T04:35:32.020Z,86.16
2022-12-14T04:38:07.299Z,85.99
2022-12-14T04:40:38.734Z,86.22
2022-12-14T04:43:10.055Z,86.12
2022-12-14T04:45:45.010Z,86.10
2022-12-14T04:48:31.528Z,86.25
2022-12-14T04:51:07.996Z,86.47
2022-12-14T04:53:37.889Z,86.02
2022-12-14T04:56:15.923Z,86.31
2022-12-14T04:58:42.769Z,86.25
2022-12-14T05:01:28.065Z,86.41
2022-12-14T05:04:12.114Z,86.46
2022-12-14T05:06:48.025Z,86.40
2022-12-14T05:09:20.599Z,86.29
2022-12-14T05:12:00.138Z,86.06
2022-12-14T05:14:42.494Z,86.49
2022-12-14T05:17:09.799Z,86.70
2022-12-14T05:19:37.406Z,86.34
2022-12-14T05:22:07.243Z,86.32
2022-12-14T05:24:33.743Z,86.37
2022-12-14T05:27:00.139Z,86.44
2022-12-14T05:29:26.569Z,86.49
2022-12-14T05:31:53.048Z,86.29
2022-12-14T05:34:19.708Z,86.11
2022-12-14T05:36:46.255Z,86.24
2022-12-14T05:39:13.281Z,86.38
2022-12-14T05:41:39.749Z,86.50
2022-12-14T05:44:06.243Z,86.31
2022-12-14T05:46:32.807Z,86.40
2022-12-14T05:48:59.147Z,86.51
2022-12-14T05:51:25.558Z,86.21
2022-12-14T05:53:52.277Z,86.36
2022-12-14T05:56:18.812Z,86.14
2022-12-14T05:58:49.956Z,86.67
2022-12-14T06:01:19.316Z,86.19
2022-12-14T06:03:46.481Z,86.02
2022-12-14T06:06:13.966Z,86.11
2022-12-14T06:08:44.705Z,86.30
2022-12-14T06:11:19.974Z,86.23
2022-12-14T06:13:47.275Z,85.95
2022-12-14T06:16:22.690Z,85.70
2022-12-14T06:18:55.312Z,86.22
2022-12-14T06:21:42.452Z,86.24
2022-12-14T06:24:13.773Z,86.01
2022-12-14T06:26:40.970Z,86.43
2022-12-14T06:29:11.266Z,86.19
2022-12-14T06:31:38.327Z,86.20
2022-12-14T06:34:05.429Z,86.14
2022-12-14T06:36:34.890Z,86.39
2022-12-14T06:39:06.488Z,86.42
2022-12-14T06:41:33.010Z,86.26
2022-12-14T06:44:05.530Z,86.19
2022-12-14T06:46:31.980Z,86.31
2022-12-14T06:48:58.355Z,86.40
2022-12-14T06:51:25.774Z,86.39
2022-12-14T06:53:53.878Z,86.43
2022-12-14T06:56:22.386Z,86.39
2022-12-14T06:58:48.926Z,86.67
2022-12-14T07:01:18.232Z,86.54
2022-12-14T07:03:53.497Z,86.58
2022-12-14T07:06:20.735Z,86.34
2022-12-14T07:08:47.297Z,86.80
2022-12-14T07:11:15.500Z,86.37
2022-12-14T07:13:42.315Z,86.46
2022-12-14T07:16:14.903Z,86.42
2022-12-14T07:18:41.302Z,86.59
2022-12-14T07:21:09.936Z,86.47
2022-12-14T07:23:40.825Z,86.34
2022-12-14T07:26:13.127Z,86.87
2022-12-14T07:28:41.043Z,86.61
2022-12-14T07:31:12.577Z,86.75
2022-12-14T07:33:39.107Z,86.68
2022-12-14T07:36:10.628Z,86.46
2022-12-14T07:38:38.768Z,86.82
2022-12-14T07:41:12.247Z,86.24
2022-12-14T07:43:39.763Z,86.18
2022-12-14T07:46:09.629Z,86.57
2022-12-14T07:48:36.332Z,86.51
2022-12-14T07:51:08.631Z,86.64
2022-12-14T07:53:36.650Z,86.35
2022-12-14T07:56:08.512Z,86.52
2022-12-14T07:58:36.169Z,86.50
2022-12-14T08:01:12.741Z,86.46
2022-12-14T08:03:41.869Z,86.84
2022-12-14T08:06:10.839Z,86.68
2022-12-14T08:08:37.330Z,86.92
2022-12-14T08:11:04.495Z,86.90
2022-12-14T08:13:31.845Z,86.66
2022-12-14T08:16:12.210Z,86.71
2022-12-14T08:18:38.958Z,86.75
2022-12-14T08:21:07.505Z,87.08
2022-12-14T08:23:34.560Z,86.71
2022-12-14T08:26:02.091Z,86.70
2022-12-14T08:28:30.482Z,87.27
2022-12-14T08:30:58.010Z,86.67
2022-12-14T08:33:24.699Z,86.88
2022-12-14T08:35:51.097Z,87.20
2022-12-14T08:38:17.860Z,87.17
2022-12-14T08:40:44.315Z,87.49
2022-12-14T08:43:10.783Z,87.40
2022-12-14T08:45:37.194Z,87.14
2022-12-14T08:48:04.022Z,87.00
2022-12-14T08:50:31.295Z,87.19
2022-12-14T08:52:57.690Z,87.19
2022-12-14T08:55:29.108Z,87.45
2022-12-14T08:57:58.232Z,87.19
2022-12-14T09:00:24.592Z,86.94
2022-12-14T09:02:51.622Z,87.35
2022-12-14T09:05:18.399Z,86.88
2022-12-14T09:07:44.896Z,87.00
2022-12-14T09:10:11.521Z,86.90
2022-12-14T09:12:38.072Z,86.75
2022-12-14T09:15:05.266Z,86.86
2022-12-14T09:17:31.726Z,86.92
2022-12-14T09:19:58.178Z,86.70
2022-12-14T09:22:24.632Z,86.88
2022-12-14T09:24:51.914Z,86.73
2022-12-14T09:27:18.581Z,86.48
2022-12-14T09:29:45.032Z,86.48
2022-12-14T09:32:11.555Z,86.46
2022-12-14T09:34:37.891Z,86.62
2022-12-14T09:37:07.324Z,86.46
2022-12-14T09:39:34.559Z,86.21
2022-12-14T09:42:58.355Z,86.20
2022-12-14T09:45:35.160Z,86.00
2022-12-14T09:48:18.108Z,85.81
2022-12-14T09:50:49.769Z,85.79
2022-12-14T09:53:18.352Z,85.33
2022-12-14T09:55:47.580Z,85.26
2022-12-14T09:58:21.696Z,85.34
2022-12-14T10:00:53.884Z,85.38
2022-12-14T10:04:02.332Z,84.79
2022-12-14T10:06:39.662Z,85.10
2022-12-14T10:09:08.907Z,84.84
2022-12-14T10:11:53.448Z,84.33
2022-12-14T10:14:45.970Z,84.48
2022-12-14T10:17:15.491Z,84.56
2022-12-14T10:20:02.241Z,83.63
2022-12-14T10:22:35.483Z,83.49
2022-12-14T10:25:22.715Z,83.49
2022-12-14T10:28:12.390Z,83.65
2022-12-14T10:30:42.410Z,82.84
2022-12-14T10:33:13.524Z,82.60
2022-12-14T10:35:54.801Z,82.51
2022-12-14T10:38:33.497Z,82.36
2022-12-14T10:41:07.140Z,81.88
2022-12-14T10:43:42.594Z,81.93
2022-12-14T10:46:23.592Z,81.72
2022-12-14T10:49:08.853Z,81.62
2022-12-14T10:51:46.954Z,80.78
2022-12-14T10:54:33.748Z,81.06
2022-12-14T10:57:01.386Z,81.00
2022-12-14T10:59:39.581Z,80.58
2022-12-14T11:02:17.489Z,80.77
2022-12-14T11:04:52.023Z,80.31
2022-12-14T11:07:22.352Z,80.30
2022-12-14T11:09:49.007Z,80.41
2022-12-14T11:12:25.255Z,80.00
2022-12-14T11:14:53.042Z,80.01
2022-12-14T11:17:32.973Z,79.44
2022-12-14T11:20:05.103Z,79.18
2022-12-14T11:22:53.449Z,79.31
2022-12-14T11:25:25.622Z,78.86
2022-12-14T11:27:52.390Z,79.04
2022-12-14T11:30:19.123Z,78.81
2022-12-14T11:32:49.746Z,78.61
2022-12-14T11:35:18.555Z,78.62
2022-12-14T11:37:48.144Z,78.41
2022-12-14T11:40:25.233Z,77.30
2022-12-14T11:42:59.557Z,77.01
2022-12-14T11:45:26.080Z,76.92
2022-12-14T11:48:15.513Z,76.05
2022-12-14T11:50:44.523Z,75.95
2022-12-14T11:53:16.840Z,75.72
2022-12-14T11:55:57.209Z,75.33
2022-12-14T11:58:48.129Z,75.06
2022-12-14T12:01:17.619Z,75.25
2022-12-14T12:03:54.337Z,74.40
2022-12-14T12:06:29.596Z,73.08
2022-12-14T12:08:59.631Z,73.04
2022-12-14T12:11:32.814Z,73.40
2022-12-14T12:14:03.470Z,73.25
2022-12-14T12:16:30.681Z,72.95
2022-12-14T12:19:12.203Z,72.01
2022-12-14T12:21:41.997Z,71.88
2022-12-14T12:24:27.112Z,71.23
2022-12-14T12:26:57.930Z,71.36
2022-12-14T12:29:36.699Z,71.44
2022-12-14T12:32:10.242Z,70.94
2022-12-14T12:34:48.040Z,70.49
2022-12-14T12:37:42.316Z,70.90
2022-12-14T12:40:21.003Z,70.98
2022-12-14T12:42:56.982Z,70.99
2022-12-14T12:45:37.233Z,71.36
2022-12-14T12:48:10.971Z,71.12
2022-12-14T12:50:44.821Z,70.38
2022-12-14T12:53:22.049Z,70.28
2022-12-14T12:55:52.209Z,70.42
2022-12-14T12:58:27.524Z,71.25
2022-12-14T13:00:57.677Z,70.57
2022-12-14T13:03:37.278Z,70.28
2022-12-14T13:06:48.489Z,70.11
2022-12-14T13:09:36.455Z,70.06
2022-12-14T13:12:05.224Z,70.07
2022-12-14T13:14:42.276Z,70.07
2022-12-14T13:17:30.483Z,69.93
2022-12-14T13:19:59.683Z,70.39
2022-12-14T13:22:30.006Z,70.23
2022-12-14T13:25:02.432Z,69.78
2022-12-14T13:27:31.772Z,69.87
2022-12-14T13:30:27.542Z,69.72
2022-12-14T13:33:02.995Z,69.95
2022-12-14T13:35:53.725Z,70.05
2022-12-14T13:38:46.336Z,70.04
2022-12-14T13:41:29.258Z,70.23
2022-12-14T13:44:43.369Z,70.28
2022-12-14T13:47:20.681Z,70.16
2022-12-14T13:50:39.748Z,70.69
2022-12-14T13:53:48.359Z,70.28
2022-12-14T13:56:24.321Z,70.79
2022-12-14T13:58:55.906Z,70.50
2022-12-14T14:01:22.264Z,70.47
2022-12-14T14:03:53.876Z,70.51
2022-12-14T14:06:29.163Z,70.21
2022-12-14T14:08:55.561Z,70.52
2022-12-14T14:11:36.825Z,70.22
2022-12-14T14:14:20.884Z,70.47
2022-12-14T14:16:53.707Z,70.29
2022-12-14T14:19:23.828Z,70.83
2022-12-14T14:22:22.728Z,71.06
2022-12-14T14:24:57.364Z,70.68
2022-12-14T14:27:27.330Z,70.66
2022-12-14T14:29:54.620Z,70.85
2022-12-14T14:32:38.228Z,71.10
2022-12-14T14:35:34.290Z,70.86
2022-12-14T14:38:25.711Z,71.46
2022-12-14T14:41:16.085Z,70.83
2022-12-14T14:43:51.572Z,71.40
2022-12-14T14:46:23.044Z,71.80
2022-12-14T14:48:52.929Z,71.43
2022-12-14T14:51:35.325Z,72.15
2022-12-14T14:54:44.794Z,72.51
2022-12-14T14:57:55.167Z,72.99
2022-12-14T15:00:23.039Z,72.66
2022-12-14T15:02:53.282Z,73.34
2022-12-14T15:05:43.481Z,74.20
2022-12-14T15:08:34.070Z,74.09
2022-12-14T15:11:05.122Z,73.80
2022-12-14T15:13:47.973Z,74.43
2022-12-14T15:16:42.000Z,74.62
2022-12-14T15:19:33.452Z,74.80
2022-12-14T15:22:04.303Z,75.03
2022-12-14T15:24:37.010Z,74.94
2022-12-14T15:27:18.550Z,75.57
2022-12-14T15:29:49.399Z,75.58
2022-12-14T15:32:18.805Z,75.66
2022-12-14T15:35:07.506Z,75.73
2022-12-14T15:37:48.857Z,76.08
2022-12-14T15:40:22.472Z,76.18
2022-12-14T15:42:53.548Z,75.72
2022-12-14T15:45:22.151Z,75.65
2022-12-14T15:47:49.243Z,76.38
2022-12-14T15:50:26.875Z,76.21
2022-12-14T15:52:56.230Z,76.53
2022-12-14T15:55:38.016Z,76.39
2022-12-14T15:58:26.119Z,76.54
2022-12-14T16:00:52.975Z,76.52
2022-12-14T16:03:30.377Z,77.05
2022-12-14T16:05:58.779Z,77.12
2022-12-14T16:08:26.851Z,76.72
2022-12-14T16:10:55.709Z,76.87
2022-12-14T16:13:30.933Z,77.64
2022-12-14T16:15:59.904Z,77.67
2022-12-14T16:18:26.772Z,77.93
2022-12-14T16:20:59.118Z,77.54
2022-12-14T16:23:33.720Z,77.46
2022-12-14T16:26:21.914Z,77.66
2022-12-14T16:28:48.422Z,78.06
2022-12-14T16:31:20.354Z,78.03
2022-12-14T16:33:50.168Z,78.23
2022-12-14T16:36:19.901Z,78.44
2022-12-14T16:39:03.719Z,78.62
2022-12-14T16:41:44.519Z,78.48
2022-12-14T16:44:23.166Z,78.70
2022-12-14T16:47:02.386Z,79.01
2022-12-14T16:49:31.727Z,79.12
2022-12-14T16:52:14.039Z,79.02
2022-12-14T16:54:40.699Z,79.27
2022-12-14T16:57:24.096Z,79.30
2022-12-14T16:59:59.555Z,79.51
2022-12-14T17:02:40.950Z,79.40
2022-12-14T17:05:31.670Z,79.80
2022-12-14T17:07:58.110Z,79.63
2022-12-14T17:10:26.898Z,80.38
2022-12-14T17:12:58.803Z,79.92
2022-12-14T17:15:26.716Z,80.23
2022-12-14T17:17:55.428Z,80.36
2022-12-14T17:20:26.315Z,80.76
2022-12-14T17:22:53.980Z,80.75
2022-12-14T17:25:21.260Z,80.67
2022-12-14T17:27:47.833Z,80.88
2022-12-14T17:30:19.056Z,80.86
2022-12-14T17:32:45.679Z,81.05
2022-12-14T17:35:18.883Z,80.87
2022-12-14T17:37:45.378Z,81.05
2022-12-14T17:40:12.158Z,81.15
2022-12-14T17:42:40.693Z,81.28
2022-12-14T17:45:26.073Z,81.20
2022-12-14T17:47:52.885Z,81.36
2022-12-14T17:50:20.236Z,81.27
2022-12-14T17:52:48.070Z,81.47
2022-12-14T17:55:20.374Z,81.22
2022-12-14T17:57:47.194Z,81.17
2022-12-14T18:00:50.754Z,81.35
2022-12-14T18:03:18.584Z,81.19
2022-12-14T18:05:49.180Z,81.42
2022-12-14T18:08:20.385Z,81.39
2022-12-14T18:10:50.889Z,81.52
2022-12-14T18:13:17.374Z,81.96
2022-12-14T18:15:50.529Z,81.91
2022-12-14T18:18:22.420Z,82.30
2022-12-14T18:20:56.787Z,82.24
2022-12-14T18:23:23.906Z,82.51
2022-12-14T18:25:53.232Z,82.38
2022-12-14T18:28:20.321Z,82.31
2022-12-14T18:30:51.988Z,82.59
2022-12-14T18:33:20.732Z,82.67
2022-12-14T18:35:48.784Z,82.63
2022-12-14T18:38:15.530Z,82.78
2022-12-14T18:40:44.378Z,82.55
2022-12-14T18:43:18.149Z,83.08
2022-12-14T18:45:44.774Z,83.26
2022-12-14T18:48:11.219Z,83.01
2022-12-14T18:50:42.506Z,83.09
2022-12-14T18:53:17.700Z,83.46
2022-12-14T18:55:44.477Z,83.31
2022-12-14T18:58:23.128Z,83.38
2022-12-14T19:00:51.647Z,83.47
2022-12-14T19:03:18.318Z,83.32
2022-12-14T19:05:45.098Z,83.11
2022-12-14T19:08:12.545Z,83.08
2022-12-14T19:10:42.542Z,83.27
2022-12-14T19:13:14.812Z,83.44
2022-12-14T19:15:41.222Z,83.31
2022-12-14T19:18:07.793Z,83.67
2022-12-14T19:20:34.213Z,83.65
2022-12-14T19:23:02.413Z,83.71
2022-12-14T19:25:28.823Z,83.76
2022-12-14T19:30:44.386Z,83.74
2022-12-14T19:33:11.259Z,83.86
2022-12-14T19:35:41.982Z,83.88
2022-12-14T19:38:13.593Z,83.95
2022-12-14T19:40:40.338Z,84.14
2022-12-14T19:43:06.744Z,83.91
2022-12-14T19:45:33.168Z,83.69
2022-12-14T19:47:59.565Z,83.95
2022-12-14T19:50:25.986Z,84.08
2022-12-14T19:52:52.502Z,83.84
2022-12-14T19:55:19.034Z,84.07
2022-12-14T19:57:45.369Z,84.16
2022-12-14T20:00:12.132Z,83.91
2022-12-14T20:02:38.840Z,83.89
2022-12-14T20:05:06.076Z,83.99
2022-12-14T20:07:32.510Z,83.92
2022-12-14T20:09:58.852Z,84.10
2022-12-14T20:12:25.466Z,83.89
2022-12-14T20:14:51.920Z,84.28
2022-12-14T20:17:18.383Z,84.38
2022-12-14T20:19:44.910Z,84.19
2022-12-14T20:22:14.515Z,84.19
2022-12-14T20:24:42.015Z,84.20
2022-12-14T20:27:08.747Z,84.45
2022-12-14T20:29:35.122Z,84.22
2022-12-14T20:32:01.623Z,84.49
2022-12-14T20:34:29.119Z,84.33
2022-12-14T20:36:55.563Z,84.32
2022-12-14T20:39:22.024Z,84.37
2022-12-14T20:41:48.465Z,84.54
2022-12-14T20:44:16.153Z,84.40
2022-12-14T20:46:45.259Z,84.57
2022-12-14T20:49:17.714Z,84.72
2022-12-14T20:51:45.615Z,84.30
2022-12-14T20:54:15.530Z,84.56
2022-12-14T20:56:42.695Z,84.50
2022-12-14T20:59:10.460Z,84.54
2022-12-14T21:01:38.766Z,84.73
2022-12-14T21:04:06.459Z,84.62
2022-12-14T21:06:36.294Z,84.34
2022-12-14T21:09:05.523Z,84.61
2022-12-14T21:11:53.164Z,84.65
2022-12-14T21:14:20.963Z,84.82
2022-12-14T21:16:47.777Z,84.67
2022-12-14T21:19:14.304Z,85.00
2022-12-14T21:21:41.535Z,84.86
2022-12-14T21:24:10.854Z,84.92
2022-12-14T21:26:39.771Z,84.94
2022-12-14T21:29:11.197Z,84.86
2022-12-14T21:31:40.751Z,84.99
2022-12-14T21:34:08.255Z,85.01
2022-12-14T21:36:34.924Z,85.02
2022-12-14T21:39:04.144Z,84.93
2022-12-14T21:41:49.227Z,84.58
2022-12-14T21:44:16.522Z,84.62
2022-12-14T21:46:43.054Z,84.80
2022-12-14T21:49:09.945Z,84.69
2022-12-14T21:51:37.152Z,84.73
2022-12-14T21:54:04.406Z,84.80
2022-12-14T21:56:55.084Z,84.64
2022-12-14T21:59:25.658Z,84.84
2022-12-14T22:01:53.177Z,84.92
2022-12-14T22:04:20.241Z,84.71
2022-12-14T22:06:47.024Z,84.98
2022-12-14T22:09:13.498Z,84.89
2022-12-14T22:11:39.863Z,84.85
2022-12-14T22:14:06.321Z,85.15
2022-12-14T22:16:34.316Z,85.19
2022-12-14T22:19:01.514Z,85.04
2022-12-14T22:21:28.326Z,85.24
2022-12-14T22:23:55.589Z,85.28
2022-12-14T22:26:22.697Z,85.13
2022-12-14T22:28:52.685Z,84.99
2022-12-14T22:31:20.536Z,84.96
2022-12-14T22:33:51.095Z,84.67
2022-12-14T22:36:18.197Z,85.11
2022-12-14T22:38:44.788Z,84.89
2022-12-14T22:41:14.466Z,84.82
2022-12-14T22:43:42.351Z,84.93
2022-12-14T22:46:11.922Z,84.78
2022-12-14T22:48:38.869Z,84.75
2022-12-14T22:51:10.177Z,84.86
2022-12-14T22:53:37.435Z,84.51
2022-12-14T22:56:13.173Z,84.70
2022-12-14T22:58:41.212Z,84.57
2022-12-14T23:01:07.873Z,84.25
2022-12-14T23:03:34.908Z,84.71
2022-12-14T23:06:02.222Z,85.04
2022-12-14T23:08:28.987Z,85.14
2022-12-14T23:11:13.760Z,85.23
2022-12-14T23:13:58.680Z,85.24
2022-12-14T23:16:43.608Z,85.34
2022-12-14T23:19:34.966Z,84.99
2022-12-14T23:22:19.745Z,85.01
2022-12-14T23:25:04.918Z,84.91
2022-12-14T23:27:49.803Z,85.02
2022-12-14T23:30:34.698Z,84.81
2022-12-14T23:33:19.899Z,85.02
2022-12-14T23:36:04.836Z,84.86
2022-12-14T23:38:49.477Z,84.77
2022-12-14T23:41:34.967Z,85.02
2022-12-14T23:44:19.699Z,84.92
2022-12-14T23:47:04.933Z,85.11
2022-12-14T23:49:49.563Z,85.22
2022-12-14T23:52:34.374Z,85.03
2022-12-14T23:55:19.061Z,85.35
2022-12-14T23:58:03.786Z,85.00
